Time;durP1;ratioP1;P1;durP2;ratioP2;P2;SDS_P1;SDS_P2;PMS_P1;PMS_P2;Temp;Humidity;BMP_temperature;BMP_pressure;BME280_temperature;BME280_humidity;BME280_pressure;Samples;Min_cycle;Max_cycle;Signal;HPM_P1;HPM_P2
2022/01/24 00:02:28;;;;;;;5.10;2.80;;;6.00;99.90;;;;;;5065356;28;20199;-70
2022/01/24 00:04:55;;;;;;;4.77;2.63;;;6.10;99.90;;;;;;5060831;28;20581;-69
2022/01/24 00:07:23;;;;;;;4.47;2.43;;;5.90;99.90;;;;;;5048830;28;20195;-69
2022/01/24 00:09:53;;;;;;;3.20;2.30;;;6.00;99.90;;;;;;5051419;28;20194;-69
2022/01/24 00:12:32;;;;;;;4.00;2.33;;;6.00;99.90;;;;;;5063421;28;20669;-69
2022/01/24 00:17:41;;;;;;;4.30;2.70;;;6.10;99.90;;;;;;5059800;28;20233;-69
2022/01/24 00:28:07;;;;;;;3.77;2.87;;;6.10;99.90;;;;;;5058566;28;20206;-69
2022/01/24 00:30:34;;;;;;;4.70;3.20;;;6.10;99.90;;;;;;5065411;28;20202;-69
2022/01/24 00:33:01;;;;;;;5.03;3.00;;;6.20;99.90;;;;;;5063338;28;20201;-69
2022/01/24 00:35:31;;;;;;;4.07;2.80;;;6.20;99.90;;;;;;5066149;28;20253;-69
2022/01/24 00:38:01;;;;;;;4.10;2.80;;;6.20;99.90;;;;;;5063252;28;20236;-69
2022/01/24 00:40:30;;;;;;;6.17;3.23;;;6.10;99.90;;;;;;5063958;28;20197;-69
2022/01/24 00:42:58;;;;;;;3.87;2.77;;;6.20;99.90;;;;;;5063372;28;20194;-70
2022/01/24 00:46:32;;;;;;;4.20;2.87;;;6.10;99.90;;;;;;5062352;28;20225;-69
2022/01/24 00:48:31;;;;;;;4.63;3.20;;;6.10;99.90;;;;;;5055728;28;20212;-69
2022/01/24 00:56:11;;;;;;;8.17;3.23;;;6.00;99.90;;;;;;5068804;28;20196;-69
2022/01/24 00:58:38;;;;;;;3.93;2.50;;;6.00;99.90;;;;;;5060001;28;20219;-69
2022/01/24 01:01:05;;;;;;;3.80;2.63;;;6.00;99.90;;;;;;5063579;28;20316;-69
2022/01/24 01:03:32;;;;;;;3.80;2.43;;;6.00;99.90;;;;;;5063041;28;20218;-69
2022/01/24 01:19:32;;;;;;;3.80;2.60;;;5.90;99.90;;;;;;5044862;28;20198;-69
2022/01/24 01:21:59;;;;;;;4.07;2.80;;;5.90;99.90;;;;;;5054856;28;20667;-69
2022/01/24 01:24:28;;;;;;;4.73;2.70;;;6.00;99.90;;;;;;5061921;28;20225;-69
2022/01/24 01:27:10;;;;;;;4.10;2.80;;;5.90;99.90;;;;;;5053204;28;20202;-69
2022/01/24 01:37:58;;;;;;;4.40;2.67;;;5.90;99.90;;;;;;5065162;28;20224;-69
2022/01/24 01:54:30;;;;;;;6.00;2.70;;;6.00;99.90;;;;;;5060965;28;20696;-69
2022/01/24 01:56:57;;;;;;;3.27;2.40;;;6.00;99.90;;;;;;5064349;28;20198;-69
2022/01/24 01:59:24;;;;;;;3.50;2.60;;;6.00;99.90;;;;;;5064561;28;20297;-69
2022/01/24 02:01:51;;;;;;;3.23;2.50;;;6.00;99.90;;;;;;5065005;28;20195;-69
2022/01/24 02:04:19;;;;;;;5.37;2.47;;;6.00;99.90;;;;;;5068735;28;20322;-69
2022/01/24 02:06:46;;;;;;;3.27;2.40;;;6.00;99.90;;;;;;5063434;28;20209;-69
2022/01/24 02:09:14;;;;;;;3.77;2.57;;;6.00;99.90;;;;;;5059683;28;20661;-69
2022/01/24 02:11:40;;;;;;;4.37;2.73;;;6.00;99.90;;;;;;5066454;28;20528;-69
2022/01/24 02:14:13;;;;;;;3.80;2.57;;;6.10;99.90;;;;;;5064872;28;20453;-69
2022/01/24 02:16:59;;;;;;;3.27;2.50;;;6.10;99.90;;;;;;5052687;28;20194;-69
2022/01/24 02:19:35;;;;;;;3.80;2.43;;;6.10;99.90;;;;;;5063139;28;20194;-69
2022/01/24 02:24:41;;;;;;;2.90;2.20;;;6.20;99.90;;;;;;5058927;28;20221;-69
2022/01/24 02:27:10;;;;;;;4.40;2.20;;;6.10;99.90;;;;;;5061322;28;20505;-69
2022/01/24 02:32:04;;;;;;;4.90;2.57;;;6.00;99.90;;;;;;5056200;28;20661;-69
2022/01/24 02:34:36;;;;;;;3.57;2.43;;;6.00;99.90;;;;;;5064431;28;20577;-69
2022/01/24 02:37:07;;;;;;;3.33;2.47;;;6.10;99.90;;;;;;5061802;28;20209;-69
2022/01/24 02:39:55;;;;;;;5.97;2.63;;;6.00;99.90;;;;;;5065432;28;20198;-69
2022/01/24 02:53:22;;;;;;;4.57;2.30;;;5.90;99.90;;;;;;5064251;28;20203;-69
2022/01/24 02:55:49;;;;;;;3.33;2.30;;;5.90;99.90;;;;;;5066328;28;20693;-69
2022/01/24 02:58:17;;;;;;;4.43;2.43;;;6.00;99.90;;;;;;5065005;28;20221;-69
2022/01/24 03:00:45;;;;;;;3.10;2.33;;;6.10;99.90;;;;;;5063679;28;20205;-69
2022/01/24 03:03:13;;;;;;;4.23;2.33;;;6.10;99.90;;;;;;5056719;28;20563;-69
2022/01/24 03:05:40;;;;;;;4.40;2.40;;;6.00;99.90;;;;;;5061974;28;20233;-69
2022/01/24 03:08:07;;;;;;;3.93;2.67;;;6.00;99.90;;;;;;5061401;28;20325;-69
2022/01/24 03:10:39;;;;;;;4.53;2.53;;;6.10;99.90;;;;;;5054768;28;20202;-69
2022/01/24 03:15:39;;;;;;;3.23;2.20;;;6.10;99.90;;;;;;5065766;28;20198;-69
2022/01/24 03:18:07;;;;;;;4.50;2.40;;;6.10;99.90;;;;;;5060941;28;20567;-69
2022/01/24 03:20:34;;;;;;;2.40;2.10;;;6.10;99.90;;;;;;5055350;28;20191;-69
2022/01/24 03:23:01;;;;;;;3.13;2.10;;;6.10;99.90;;;;;;5061038;28;20202;-69
2022/01/24 03:25:28;;;;;;;3.60;2.23;;;6.00;99.90;;;;;;5054834;28;20234;-69
2022/01/24 03:27:55;;;;;;;2.33;2.13;;;6.00;99.90;;;;;;5061584;28;20194;-69
2022/01/24 03:30:23;;;;;;;2.93;2.53;;;6.00;99.90;;;;;;5066725;28;20206;-69
2022/01/24 03:32:50;;;;;;;3.23;2.40;;;6.00;99.90;;;;;;5063014;28;20402;-69
2022/01/24 03:35:17;;;;;;;6.23;2.67;;;6.00;99.90;;;;;;5052159;28;21566;-69
2022/01/24 03:37:44;;;;;;;5.67;2.40;;;6.00;99.90;;;;;;5062519;28;20222;-69
2022/01/24 03:40:11;;;;;;;3.50;2.30;;;6.00;99.90;;;;;;5060880;28;20209;-69
2022/01/24 03:42:38;;;;;;;3.07;2.13;;;6.00;99.90;;;;;;5057950;28;20210;-70
2022/01/24 03:45:08;;;;;;;3.57;2.30;;;6.00;99.90;;;;;;5064264;28;20218;-69
2022/01/24 03:50:06;;;;;;;4.67;2.67;;;6.00;99.90;;;;;;5065689;28;20657;-69
2022/01/24 03:52:33;;;;;;;5.37;2.43;;;6.10;99.90;;;;;;5060549;28;20198;-69
2022/01/24 03:55:03;;;;;;;4.53;2.33;;;6.20;99.90;;;;;;5063865;28;20225;-69
2022/01/24 03:57:30;;;;;;;5.13;2.53;;;6.10;99.90;;;;;;5062426;28;20665;-69
2022/01/24 03:59:56;;;;;;;3.33;2.07;;;6.00;99.90;;;;;;5064758;28;20206;-69
2022/01/24 04:02:26;;;;;;;3.80;2.20;;;6.00;99.90;;;;;;5064210;28;20209;-69
2022/01/24 04:04:53;;;;;;;3.33;2.40;;;6.00;99.90;;;;;;5059411;28;20241;-69
2022/01/24 04:07:20;;;;;;;4.70;2.10;;;6.00;99.90;;;;;;5076507;28;20195;-69
2022/01/24 04:09:47;;;;;;;3.83;2.27;;;6.10;99.90;;;;;;5059153;28;20195;-69
2022/01/24 04:12:16;;;;;;;3.07;2.10;;;6.10;99.90;;;;;;5067501;28;20538;-69
2022/01/24 04:22:32;;;;;;;2.40;2.20;;;6.00;99.90;;;;;;5055752;28;20595;-69
2022/01/24 04:25:01;;;;;;;2.20;2.00;;;6.00;99.90;;;;;;5061295;28;20213;-69
2022/01/24 04:27:29;;;;;;;2.60;1.87;;;6.10;99.90;;;;;;5058674;28;20369;-69
2022/01/24 04:29:56;;;;;;;3.43;2.00;;;6.00;99.90;;;;;;5061416;28;20202;-69
2022/01/24 04:32:23;;;;;;;3.47;1.90;;;6.00;99.90;;;;;;5059835;28;20198;-69
2022/01/24 04:34:51;;;;;;;1.80;1.50;;;5.90;99.90;;;;;;5067847;28;20217;-69
2022/01/24 04:37:18;;;;;;;1.90;1.50;;;6.00;99.90;;;;;;5062377;28;20190;-69
2022/01/24 04:39:45;;;;;;;2.47;1.57;;;5.90;99.90;;;;;;5062744;28;20224;-69
2022/01/24 04:42:18;;;;;;;1.90;1.40;;;5.90;99.90;;;;;;5062195;28;20209;-69
2022/01/24 04:47:24;;;;;;;2.57;1.37;;;5.90;99.90;;;;;;5060761;28;20201;-69
2022/01/24 04:55:15;;;;;;;2.50;1.70;;;6.00;99.90;;;;;;5059142;28;20229;-69
2022/01/24 04:57:42;;;;;;;3.07;1.70;;;6.10;99.90;;;;;;5065896;28;20622;-70
2022/01/24 05:00:10;;;;;;;1.73;1.30;;;6.00;99.90;;;;;;5061023;28;20561;-69
2022/01/24 05:02:37;;;;;;;2.43;1.60;;;6.00;99.90;;;;;;5068365;28;20190;-69
2022/01/24 05:05:06;;;;;;;3.50;2.03;;;6.00;99.90;;;;;;5070957;28;20218;-70
2022/01/24 05:07:33;;;;;;;2.30;1.50;;;6.00;99.90;;;;;;5066551;28;21571;-69
2022/01/24 05:10:12;;;;;;;5.57;1.70;;;6.10;99.90;;;;;;5065985;28;20208;-69
2022/01/24 05:23:33;;;;;;;2.33;1.60;;;6.00;99.90;;;;;;5067318;28;20205;-69
2022/01/24 05:26:02;;;;;;;2.43;1.60;;;6.00;99.90;;;;;;5065073;28;20203;-69
2022/01/24 05:28:30;;;;;;;2.63;1.80;;;5.90;99.90;;;;;;5061179;28;20198;-69
2022/01/24 05:30:58;;;;;;;4.87;2.10;;;6.00;99.90;;;;;;5064551;28;20197;-69
2022/01/24 05:33:26;;;;;;;3.07;1.60;;;6.00;99.90;;;;;;5062784;28;20207;-69
2022/01/24 05:35:53;;;;;;;1.70;1.50;;;6.00;99.90;;;;;;5064547;28;20201;-69
2022/01/24 05:38:22;;;;;;;2.67;1.80;;;6.00;99.90;;;;;;5071073;28;20225;-69
2022/01/24 05:40:49;;;;;;;2.40;1.60;;;6.00;99.90;;;;;;5069340;28;20190;-69
2022/01/24 05:43:16;;;;;;;2.47;1.90;;;5.90;99.90;;;;;;5061670;28;20203;-69
2022/01/24 05:45:43;;;;;;;5.43;2.10;;;5.90;99.90;;;;;;5053604;28;20195;-69
2022/01/24 05:48:10;;;;;;;2.27;1.67;;;5.90;99.90;;;;;;5060754;28;20199;-69
2022/01/24 05:50:36;;;;;;;2.10;1.80;;;5.80;99.90;;;;;;5066849;28;20201;-69
2022/01/24 05:53:03;;;;;;;4.13;2.37;;;5.80;99.90;;;;;;5064326;28;20386;-70
2022/01/24 05:55:30;;;;;;;3.07;2.50;;;5.80;99.90;;;;;;5068527;28;20218;-70
2022/01/24 05:57:57;;;;;;;3.60;2.60;;;5.80;99.90;;;;;;5065852;28;20191;-69
2022/01/24 06:00:24;;;;;;;5.80;2.60;;;5.90;99.90;;;;;;5069278;28;20208;-71
2022/01/24 06:02:50;;;;;;;4.40;2.50;;;6.00;99.90;;;;;;5066369;28;20191;-69
2022/01/24 06:05:17;;;;;;;7.00;2.40;;;6.10;99.90;;;;;;5070411;28;20217;-69
2022/01/24 06:07:44;;;;;;;5.27;2.60;;;6.10;99.90;;;;;;5064446;28;20195;-69
2022/01/24 06:10:11;;;;;;;5.70;2.70;;;6.10;99.90;;;;;;5070869;28;20220;-69
2022/01/24 06:12:38;;;;;;;3.87;2.60;;;6.00;99.90;;;;;;5069002;28;20194;-69
2022/01/24 06:15:05;;;;;;;3.17;2.47;;;6.00;99.90;;;;;;5068716;28;20221;-69
2022/01/24 06:17:32;;;;;;;5.13;2.63;;;6.10;99.90;;;;;;5057887;28;20195;-69
2022/01/24 06:19:58;;;;;;;3.33;2.53;;;6.00;99.90;;;;;;5060030;28;20214;-69
2022/01/24 06:22:25;;;;;;;4.53;2.40;;;6.00;99.90;;;;;;5065928;28;20191;-70
2022/01/24 06:24:52;;;;;;;4.80;2.33;;;6.00;99.90;;;;;;5060091;28;20308;-69
2022/01/24 06:27:39;;;;;;;4.77;2.77;;;6.00;99.90;;;;;;5066903;28;20201;-68
2022/01/24 06:30:06;;;;;;;4.53;3.00;;;6.00;99.90;;;;;;5055211;28;20420;-68
2022/01/24 06:32:33;;;;;;;9.07;2.97;;;6.00;99.90;;;;;;5065978;28;20209;-69
2022/01/24 06:35:00;;;;;;;3.37;2.50;;;6.00;99.90;;;;;;5065075;28;20232;-70
2022/01/24 06:37:27;;;;;;;3.20;2.13;;;5.90;99.90;;;;;;5070579;28;20204;-70
2022/01/24 06:39:54;;;;;;;3.47;2.60;;;6.00;99.90;;;;;;5062210;28;20220;-70
2022/01/24 06:42:23;;;;;;;4.00;2.50;;;6.00;99.90;;;;;;5064751;28;20198;-70
2022/01/24 06:44:53;;;;;;;7.67;3.00;;;6.00;99.90;;;;;;5060855;28;20706;-71
2022/01/24 06:47:21;;;;;;;5.03;3.23;;;6.00;99.90;;;;;;5081182;28;20198;-70
2022/01/24 06:49:47;;;;;;;5.80;2.83;;;6.10;99.90;;;;;;5058878;28;20214;-70
2022/01/24 06:52:14;;;;;;;3.50;2.60;;;6.00;99.90;;;;;;5062438;28;20205;-70
2022/01/24 06:54:42;;;;;;;5.67;2.63;;;6.00;99.90;;;;;;5061676;28;20218;-70
2022/01/24 06:57:13;;;;;;;4.73;2.50;;;6.00;99.90;;;;;;5068619;28;20204;-70
2022/01/24 06:59:42;;;;;;;5.00;2.70;;;6.00;99.90;;;;;;5062527;28;20226;-70
2022/01/24 07:02:10;;;;;;;6.13;2.60;;;6.00;99.90;;;;;;5061268;28;20195;-70
2022/01/24 07:04:39;;;;;;;3.40;2.60;;;5.90;99.90;;;;;;5060477;28;20219;-70
2022/01/24 07:07:07;;;;;;;5.00;2.60;;;5.90;99.90;;;;;;5065779;28;20203;-70
2022/01/24 07:09:35;;;;;;;7.10;2.43;;;5.80;99.90;;;;;;5065661;28;20198;-70
2022/01/24 07:12:03;;;;;;;5.03;2.20;;;5.90;99.90;;;;;;5060119;28;20194;-70
2022/01/24 07:14:30;;;;;;;3.03;2.20;;;5.90;99.90;;;;;;5063736;28;20218;-71
2022/01/24 07:19:26;;;;;;;3.97;2.50;;;5.90;99.90;;;;;;5060702;28;20229;-70
2022/01/24 07:21:54;;;;;;;2.73;2.20;;;6.00;99.90;;;;;;5059795;28;22517;-71
2022/01/24 07:24:21;;;;;;;4.37;2.23;;;6.00;99.90;;;;;;5064490;28;20218;-71
2022/01/24 07:26:48;;;;;;;6.07;2.30;;;6.00;99.90;;;;;;5063989;28;20194;-71
2022/01/24 07:29:15;;;;;;;5.30;2.73;;;6.00;99.90;;;;;;5066949;28;20196;-71
2022/01/24 07:31:42;;;;;;;3.43;2.33;;;6.00;99.90;;;;;;5061815;28;20671;-69
2022/01/24 07:34:08;;;;;;;3.37;2.40;;;6.10;99.90;;;;;;5060666;28;20628;-69
2022/01/24 07:36:35;;;;;;;2.53;2.30;;;6.10;99.90;;;;;;5053708;28;20210;-70
2022/01/24 07:39:04;;;;;;;2.90;2.20;;;6.10;99.90;;;;;;5051961;28;20248;-68
2022/01/24 07:41:33;;;;;;;3.77;2.50;;;6.00;99.90;;;;;;5052068;28;20658;-68
2022/01/24 07:44:00;;;;;;;3.63;2.57;;;6.10;99.90;;;;;;5050081;28;20221;-69
2022/01/24 07:46:28;;;;;;;3.63;2.87;;;6.00;99.90;;;;;;5051066;28;20220;-69
2022/01/24 07:48:55;;;;;;;6.50;2.67;;;6.10;99.90;;;;;;5053958;28;20197;-67
2022/01/24 07:51:22;;;;;;;4.03;2.80;;;6.10;99.90;;;;;;5072825;28;20198;-69
2022/01/24 07:53:49;;;;;;;4.43;2.80;;;6.00;99.90;;;;;;5062833;28;20704;-67
2022/01/24 07:56:17;;;;;;;5.13;2.90;;;6.00;99.90;;;;;;5055175;28;20206;-68
2022/01/24 07:58:45;;;;;;;10.40;2.53;;;6.00;99.90;;;;;;5059127;28;20221;-67
2022/01/24 08:01:12;;;;;;;8.87;2.90;;;6.00;99.90;;;;;;5056508;28;20391;-66
2022/01/24 08:03:40;;;;;;;4.80;3.00;;;6.00;99.90;;;;;;5068104;28;20214;-69
2022/01/24 08:06:06;;;;;;;4.63;3.17;;;6.00;99.90;;;;;;5054607;28;20207;-67
2022/01/24 08:08:33;;;;;;;5.00;3.20;;;6.00;99.90;;;;;;5055425;28;20263;-67
2022/01/24 08:11:00;;;;;;;5.03;3.30;;;6.00;99.90;;;;;;5059832;28;20194;-67
2022/01/24 08:13:27;;;;;;;6.23;3.87;;;6.10;99.90;;;;;;5059272;28;20194;-66
2022/01/24 08:15:54;;;;;;;6.37;3.37;;;6.20;99.90;;;;;;5050514;28;20191;-67
2022/01/24 08:18:20;;;;;;;7.20;3.30;;;6.30;99.90;;;;;;5051181;28;20281;-67
2022/01/24 08:20:47;;;;;;;3.97;3.07;;;6.40;99.90;;;;;;5055524;28;20241;-69
2022/01/24 08:23:16;;;;;;;4.27;2.97;;;6.40;99.90;;;;;;5054463;28;20198;-67
2022/01/24 08:25:43;;;;;;;4.00;2.87;;;6.50;99.90;;;;;;5067329;28;20203;-68
2022/01/24 08:28:10;;;;;;;4.20;3.07;;;6.50;99.90;;;;;;5054310;28;20656;-67
2022/01/24 08:30:36;;;;;;;3.63;2.80;;;6.40;99.90;;;;;;5052113;28;20668;-72
2022/01/24 08:33:05;;;;;;;3.47;2.77;;;6.40;99.90;;;;;;5061249;28;20198;-68
2022/01/24 08:35:33;;;;;;;4.80;3.30;;;6.40;99.90;;;;;;5060575;28;20650;-68
2022/01/24 08:38:00;;;;;;;4.40;3.10;;;6.50;99.90;;;;;;5062105;28;20202;-68
2022/01/24 08:40:27;;;;;;;4.73;3.00;;;6.40;99.90;;;;;;5054252;28;20226;-68
2022/01/24 08:43:06;;;;;;;4.77;3.20;;;6.60;99.90;;;;;;5063204;28;20675;-68
2022/01/24 08:45:50;;;;;;;5.00;3.60;;;6.60;99.90;;;;;;5067925;28;20311;-68
2022/01/24 08:48:20;;;;;;;3.50;2.83;;;6.70;99.90;;;;;;5069097;28;20190;-68
2022/01/24 08:50:52;;;;;;;3.77;2.90;;;6.70;99.90;;;;;;5064945;28;20206;-70
2022/01/24 08:53:24;;;;;;;3.83;2.50;;;6.60;99.90;;;;;;5059875;28;20193;-68
2022/01/24 08:55:51;;;;;;;3.90;2.90;;;6.60;99.90;;;;;;5061073;28;20619;-68
2022/01/24 08:58:18;;;;;;;4.90;3.20;;;6.60;99.90;;;;;;5053021;28;20210;-68
2022/01/24 09:00:48;;;;;;;5.13;2.90;;;6.60;99.90;;;;;;5065098;28;20512;-70
2022/01/24 09:03:15;;;;;;;4.73;2.87;;;6.60;99.90;;;;;;5064056;28;20216;-71
2022/01/24 09:05:42;;;;;;;5.63;2.93;;;6.60;99.90;;;;;;5061676;28;20723;-73
2022/01/24 09:08:10;;;;;;;5.80;3.10;;;6.50;99.90;;;;;;5065805;28;20194;-73
2022/01/24 09:10:39;;;;;;;4.37;3.07;;;6.60;99.90;;;;;;5059053;28;20197;-72
2022/01/24 09:13:07;;;;;;;3.97;2.77;;;6.60;99.90;;;;;;5061594;28;20206;-73
2022/01/24 09:15:34;;;;;;;6.87;3.43;;;6.60;99.90;;;;;;5061178;28;20868;-71
2022/01/24 09:18:01;;;;;;;4.63;3.23;;;6.60;99.90;;;;;;5059011;28;20225;-71
2022/01/24 09:20:28;;;;;;;3.80;3.27;;;6.70;99.90;;;;;;5061145;28;20211;-70
2022/01/24 09:22:55;;;;;;;11.83;3.07;;;6.60;99.90;;;;;;5062093;28;20186;-70
2022/01/24 09:25:22;;;;;;;7.53;3.10;;;6.70;99.90;;;;;;5061074;28;20214;-70
2022/01/24 09:27:50;;;;;;;7.37;3.60;;;6.80;99.90;;;;;;5061515;28;20668;-70
2022/01/24 09:30:19;;;;;;;6.37;3.33;;;6.80;99.90;;;;;;5057886;28;20198;-71
2022/01/24 09:32:47;;;;;;;5.57;3.00;;;6.80;99.90;;;;;;5062828;28;20293;-72
2022/01/24 09:35:15;;;;;;;4.50;3.20;;;6.90;99.90;;;;;;5054911;28;20727;-71
2022/01/24 09:37:43;;;;;;;5.13;3.27;;;6.90;99.90;;;;;;5063056;28;20323;-72
2022/01/24 09:40:15;;;;;;;6.23;3.67;;;7.00;99.90;;;;;;5062455;28;20219;-71
2022/01/24 09:42:43;;;;;;;4.90;3.60;;;6.90;99.90;;;;;;5067168;28;20214;-70
2022/01/24 09:45:11;;;;;;;4.10;3.40;;;6.90;99.90;;;;;;5064698;28;20223;-71
2022/01/24 09:47:38;;;;;;;4.33;3.50;;;6.90;99.90;;;;;;5063874;28;20280;-71
2022/01/24 09:50:06;;;;;;;5.80;3.93;;;6.90;99.90;;;;;;5062317;28;20230;-68
2022/01/24 09:52:33;;;;;;;8.60;4.50;;;6.90;99.90;;;;;;5064177;28;20203;-70
2022/01/24 09:55:00;;;;;;;6.13;3.70;;;6.80;99.90;;;;;;5063747;28;20215;-69
2022/01/24 09:57:28;;;;;;;5.90;4.00;;;6.80;99.90;;;;;;5061998;28;20343;-71
2022/01/24 09:59:56;;;;;;;5.07;3.77;;;6.70;99.90;;;;;;5063610;28;20681;-71
2022/01/24 10:02:24;;;;;;;5.73;3.80;;;6.70;99.90;;;;;;5065123;28;20223;-69
2022/01/24 10:05:10;;;;;;;5.63;3.47;;;6.80;99.90;;;;;;5064501;28;20298;-68
2022/01/24 10:07:39;;;;;;;6.30;4.23;;;6.80;99.90;;;;;;5066351;28;20196;-69
2022/01/24 10:10:06;;;;;;;6.20;3.80;;;6.70;99.90;;;;;;5059500;28;20206;-71
2022/01/24 10:17:59;;;;;;;5.27;3.67;;;6.80;99.90;;;;;;5060398;28;20714;-70
2022/01/24 10:20:34;;;;;;;5.07;3.80;;;6.70;99.90;;;;;;5060188;28;20229;-69
2022/01/24 10:23:04;;;;;;;5.53;3.80;;;6.80;99.90;;;;;;5065377;28;20190;-69
2022/01/24 10:25:32;;;;;;;8.10;4.00;;;6.90;99.90;;;;;;5072659;28;20246;-71
2022/01/24 10:28:04;;;;;;;7.97;4.00;;;7.00;99.90;;;;;;5061751;28;20201;-71
2022/01/24 10:30:32;;;;;;;8.40;3.83;;;7.10;99.90;;;;;;5062762;28;20428;-68
2022/01/24 10:33:01;;;;;;;7.37;3.50;;;7.20;99.90;;;;;;5061221;28;20213;-69
2022/01/24 10:35:37;;;;;;;4.67;3.67;;;7.30;99.90;;;;;;5058817;28;20225;-70
2022/01/24 10:43:47;;;;;;;6.40;3.57;;;7.50;99.90;;;;;;5061268;28;20219;-70
2022/01/24 10:46:27;;;;;;;11.43;3.47;;;7.60;99.90;;;;;;5062379;28;20242;-70
2022/01/24 10:49:07;;;;;;;7.23;3.70;;;7.70;99.90;;;;;;5067130;28;20615;-71
2022/01/24 10:51:44;;;;;;;9.20;4.00;;;7.70;99.90;;;;;;5065344;28;20711;-70
2022/01/24 10:54:14;;;;;;;6.27;3.97;;;7.60;99.90;;;;;;5054777;28;20210;-71
2022/01/24 10:56:43;;;;;;;5.67;3.70;;;7.70;99.90;;;;;;5068466;28;20217;-68
2022/01/24 10:59:10;;;;;;;6.27;3.87;;;7.70;99.90;;;;;;5056255;28;20211;-71
2022/01/24 11:01:38;;;;;;;10.80;3.60;;;7.60;99.90;;;;;;5058313;28;20196;-70
2022/01/24 11:04:13;;;;;;;6.47;3.33;;;7.60;99.90;;;;;;5065745;28;20277;-71
2022/01/24 11:06:43;;;;;;;4.43;3.40;;;7.50;99.90;;;;;;5067517;28;20233;-70
2022/01/24 11:09:36;;;;;;;5.83;3.50;;;7.50;99.90;;;;;;5068273;28;20195;-71
2022/01/24 11:12:10;;;;;;;8.37;3.33;;;7.50;99.90;;;;;;5059469;28;20229;-67
2022/01/24 11:14:42;;;;;;;4.77;3.53;;;7.60;99.90;;;;;;5061008;28;20613;-69
2022/01/24 11:17:13;;;;;;;10.83;3.87;;;7.60;99.90;;;;;;5065068;28;20449;-69
2022/01/24 11:19:48;;;;;;;8.43;3.20;;;7.60;99.90;;;;;;5065561;28;20226;-69
2022/01/24 11:22:26;;;;;;;5.77;3.40;;;7.80;99.90;;;;;;5062648;28;20199;-74
2022/01/24 11:24:59;;;;;;;7.63;3.77;;;7.90;99.90;;;;;;5063631;28;20349;-72
2022/01/24 11:27:38;;;;;;;6.73;4.20;;;8.00;99.90;;;;;;5062604;28;20739;-72
2022/01/24 11:30:15;;;;;;;6.07;3.67;;;8.10;99.90;;;;;;5061752;28;20577;-74
2022/01/24 11:32:55;;;;;;;7.50;3.30;;;8.10;99.90;;;;;;5059923;28;20195;-75
2022/01/24 11:35:30;;;;;;;5.40;3.70;;;8.00;99.90;;;;;;5060444;28;20224;-74
2022/01/24 11:37:59;;;;;;;4.53;3.23;;;7.90;99.90;;;;;;5068266;28;20199;-74
2022/01/24 11:40:42;;;;;;;6.43;3.70;;;7.90;99.90;;;;;;5051932;28;20237;-75
2022/01/24 11:43:33;;;;;;;8.37;3.93;;;7.80;99.90;;;;;;5061700;28;20209;-70
2022/01/24 11:46:06;;;;;;;6.90;3.70;;;7.70;99.90;;;;;;5065246;28;20891;-73
2022/01/24 11:48:37;;;;;;;5.83;3.33;;;7.80;99.90;;;;;;5069809;28;20198;-72
2022/01/24 11:51:11;;;;;;;7.93;4.17;;;7.80;99.90;;;;;;5062049;28;20206;-73
2022/01/24 11:53:42;;;;;;;7.93;3.47;;;7.80;99.90;;;;;;5070853;28;20232;-72
2022/01/24 11:56:22;;;;;;;5.57;3.77;;;7.90;99.90;;;;;;5061977;28;20208;-72
2022/01/24 11:58:49;;;;;;;5.40;3.80;;;7.80;99.90;;;;;;5057607;28;20207;-71
2022/01/24 12:01:37;;;;;;;11.57;4.17;;;7.90;99.90;;;;;;5067352;28;20223;-70
2022/01/24 12:04:04;;;;;;;10.93;3.90;;;7.90;99.90;;;;;;5060788;28;20244;-70
2022/01/24 12:07:10;;;;;;;8.33;3.80;;;7.90;99.90;;;;;;5060717;28;20191;-71
2022/01/24 12:09:36;;;;;;;5.07;3.60;;;8.00;99.90;;;;;;5059695;28;20203;-69
2022/01/24 12:12:46;;;;;;;11.50;3.77;;;8.00;99.90;;;;;;5059306;28;20193;-72
2022/01/24 12:15:37;;;;;;;6.50;3.67;;;7.90;99.90;;;;;;5059855;28;20217;-74
2022/01/24 12:18:08;;;;;;;5.57;3.87;;;7.80;99.90;;;;;;5059380;28;20198;-72
2022/01/24 12:20:34;;;;;;;5.73;3.40;;;7.80;99.90;;;;;;5063956;28;20299;-70
2022/01/24 12:23:16;;;;;;;4.93;3.17;;;7.80;99.90;;;;;;5053444;28;20663;-70
2022/01/24 12:26:11;;;;;;;5.00;3.60;;;7.90;99.90;;;;;;5063465;28;20204;-70
2022/01/24 12:28:41;;;;;;;4.80;3.23;;;7.90;99.90;;;;;;5063952;28;20255;-70
2022/01/24 12:31:10;;;;;;;5.77;2.97;;;7.90;99.90;;;;;;5064703;28;20207;-71
2022/01/24 12:33:40;;;;;;;5.47;3.33;;;7.70;99.90;;;;;;5054068;28;20774;-71
2022/01/24 12:36:12;;;;;;;5.47;3.53;;;7.70;99.90;;;;;;5061406;28;20202;-73
2022/01/24 12:38:56;;;;;;;7.87;4.13;;;7.70;99.90;;;;;;5063710;28;20209;-71
2022/01/24 12:41:33;;;;;;;11.90;4.70;;;7.90;99.90;;;;;;5061010;28;20221;-69
2022/01/24 12:46:30;;;;;;;8.73;3.70;;;8.00;99.90;;;;;;5061289;28;20196;-68
2022/01/24 12:49:00;;;;;;;8.70;4.10;;;8.10;99.90;;;;;;5057637;28;20577;-70
2022/01/24 12:51:29;;;;;;;9.10;4.03;;;8.10;99.90;;;;;;5050520;28;20196;-71
2022/01/24 12:53:57;;;;;;;7.60;3.90;;;8.00;99.90;;;;;;5050835;28;20219;-69
2022/01/24 12:56:29;;;;;;;9.20;4.03;;;8.10;99.90;;;;;;5065167;28;20197;-72
2022/01/24 12:58:56;;;;;;;7.40;3.17;;;8.20;99.90;;;;;;5054744;28;20200;-70
2022/01/24 13:01:31;;;;;;;5.67;3.77;;;8.20;99.90;;;;;;5055576;28;20312;-70
2022/01/24 13:04:02;;;;;;;7.00;3.47;;;8.40;99.90;;;;;;5058302;28;20220;-68
2022/01/24 13:06:31;;;;;;;15.60;5.77;;;8.40;99.90;;;;;;5059178;28;20672;-68
2022/01/24 13:09:01;;;;;;;10.90;5.40;;;8.40;99.90;;;;;;5070148;28;20693;-70
2022/01/24 13:11:29;;;;;;;9.60;3.60;;;8.40;99.90;;;;;;5058453;28;20238;-71
2022/01/24 13:14:35;;;;;;;7.40;3.20;;;8.40;99.90;;;;;;5056166;28;20722;-72
2022/01/24 13:22:52;;;;;;;4.77;3.17;;;8.20;99.90;;;;;;5058779;28;20187;-69
2022/01/24 13:25:27;;;;;;;7.87;3.10;;;8.40;99.90;;;;;;5053142;28;20225;-71
2022/01/24 13:28:04;;;;;;;8.90;2.70;;;8.50;99.90;;;;;;5077230;28;20207;-69
2022/01/24 13:30:39;;;;;;;6.10;3.00;;;8.50;99.90;;;;;;5064261;28;20226;-72
2022/01/24 13:33:09;;;;;;;4.97;2.90;;;8.60;99.90;;;;;;5061001;28;20212;-69
2022/01/24 13:35:41;;;;;;;5.27;2.73;;;8.40;99.90;;;;;;5058496;28;20206;-69
2022/01/24 13:38:14;;;;;;;5.40;2.80;;;8.30;99.90;;;;;;5062546;28;20209;-70
2022/01/24 13:41:02;;;;;;;5.93;3.70;;;8.30;99.90;;;;;;5058207;28;20679;-72
2022/01/24 13:43:33;;;;;;;7.07;2.80;;;8.30;99.90;;;;;;5075891;28;20194;-68
2022/01/24 13:46:02;;;;;;;7.63;3.10;;;8.30;99.90;;;;;;5062545;28;20198;-70
2022/01/24 13:48:45;;;;;;;5.73;3.13;;;8.30;99.90;;;;;;5066837;28;20294;-73
2022/01/24 13:51:15;;;;;;;6.03;2.83;;;8.10;99.90;;;;;;5060865;28;20227;-69
2022/01/24 13:53:43;;;;;;;5.27;3.17;;;7.80;99.90;;;;;;5066243;28;20213;-69
2022/01/24 13:56:27;;;;;;;5.97;3.50;;;7.80;99.90;;;;;;5060381;28;20208;-71
2022/01/24 13:59:20;;;;;;;4.77;3.00;;;7.80;99.90;;;;;;5062013;28;20296;-69
2022/01/24 14:01:56;;;;;;;5.80;3.00;;;7.80;99.90;;;;;;5054869;28;20218;-69
2022/01/24 14:04:49;;;;;;;6.50;3.50;;;7.90;99.90;;;;;;5057962;28;20221;-69
2022/01/24 14:07:17;;;;;;;6.17;2.80;;;8.00;99.90;;;;;;5061633;28;20198;-71
2022/01/24 14:09:44;;;;;;;8.90;3.00;;;8.10;99.90;;;;;;5069570;28;20192;-70
2022/01/24 14:12:14;;;;;;;5.93;2.97;;;8.00;99.90;;;;;;5063499;28;20308;-68
2022/01/24 14:14:46;;;;;;;4.90;2.67;;;7.90;99.90;;;;;;5078121;28;20220;-73
2022/01/24 14:20:14;;;;;;;4.90;2.57;;;7.90;99.90;;;;;;5059530;28;20200;-71
2022/01/24 14:22:43;;;;;;;5.57;2.63;;;7.80;99.90;;;;;;5067432;28;20540;-73
2022/01/24 14:25:12;;;;;;;3.87;2.40;;;7.80;99.90;;;;;;5055977;28;20228;-71
2022/01/24 14:27:48;;;;;;;7.33;3.27;;;7.80;99.90;;;;;;5068219;28;20193;-70
2022/01/24 14:30:34;;;;;;;3.67;3.00;;;7.80;99.90;;;;;;5061980;28;20209;-70
2022/01/24 14:33:12;;;;;;;4.97;3.07;;;7.90;99.90;;;;;;5066519;28;20260;-70
2022/01/24 14:35:52;;;;;;;6.03;4.10;;;8.00;99.90;;;;;;5056825;28;20206;-71
2022/01/24 14:38:53;;;;;;;7.17;3.70;;;8.00;99.90;;;;;;5058468;28;20634;-70
2022/01/24 14:41:28;;;;;;;10.20;4.00;;;7.90;99.90;;;;;;5061888;28;20217;-71
2022/01/24 14:46:43;;;;;;;7.43;3.70;;;7.90;99.90;;;;;;5064660;28;20235;-71
2022/01/24 14:49:13;;;;;;;5.20;3.40;;;8.00;99.90;;;;;;5066816;28;20205;-69
2022/01/24 14:51:43;;;;;;;5.70;3.33;;;8.00;99.90;;;;;;5055716;28;20216;-71
2022/01/24 14:54:13;;;;;;;6.70;3.20;;;8.10;99.90;;;;;;5063868;28;20230;-69
2022/01/24 14:56:42;;;;;;;8.37;3.20;;;8.00;99.90;;;;;;5060602;28;20218;-68
2022/01/24 14:59:09;;;;;;;4.33;2.90;;;8.00;99.90;;;;;;5062756;28;20718;-68
2022/01/24 15:01:37;;;;;;;4.93;2.73;;;7.90;99.90;;;;;;5062138;28;20239;-71
2022/01/24 15:04:04;;;;;;;6.50;3.30;;;8.00;99.90;;;;;;5062779;28;20672;-69
2022/01/24 15:06:32;;;;;;;4.03;2.93;;;7.80;99.90;;;;;;5055410;28;20197;-69
2022/01/24 15:09:11;;;;;;;10.30;3.40;;;7.80;99.90;;;;;;5056103;28;20196;-69
2022/01/24 15:11:40;;;;;;;4.00;2.97;;;7.70;99.90;;;;;;5058856;28;20191;-69
2022/01/24 15:14:18;;;;;;;3.40;2.70;;;7.70;99.90;;;;;;5058394;28;20230;-70
2022/01/24 15:25:20;;;;;;;5.87;3.50;;;7.30;99.90;;;;;;5062091;28;20222;-73
2022/01/24 15:27:37;;;;;;;7.27;3.30;;;7.20;99.90;;;;;;5064814;28;20198;-72
2022/01/24 15:30:06;;;;;;;3.87;3.00;;;7.20;99.90;;;;;;5072855;28;20198;-73
2022/01/24 15:32:52;;;;;;;6.40;3.13;;;7.30;99.90;;;;;;5066888;28;20564;-74